createdAt,value
2019-03-22T00:03:21.491Z,24.43
2019-03-22T00:08:25.725Z,22.33
2019-03-22T00:13:29.953Z,24.83
2019-03-22T00:18:34.557Z,22.73
2019-03-22T00:23:38.821Z,23.43
2019-03-22T00:28:43.054Z,29.07
2019-03-22T00:33:47.305Z,28.03
2019-03-22T00:38:52.111Z,27.57
2019-03-22T00:43:56.357Z,24.03
2019-03-22T00:49:00.600Z,27.10
2019-03-22T00:54:05.282Z,23.23
2019-03-22T00:59:09.495Z,24.50
2019-03-22T01:04:13.831Z,29.47
2019-03-22T01:09:18.104Z,26.13
2019-03-22T01:14:22.336Z,24.13
2019-03-22T01:19:26.558Z,22.57
2019-03-22T01:24:30.782Z,21.87
2019-03-22T01:29:35.557Z,23.57
2019-03-22T01:34:46.699Z,28.47
2019-03-22T01:39:54.192Z,27.23
2019-03-22T01:45:01.212Z,30.03
2019-03-22T01:50:15.142Z,25.03
2019-03-22T01:55:23.508Z,25.07
2019-03-22T02:00:28.311Z,29.33
2019-03-22T02:05:35.526Z,23.00
2019-03-22T02:10:41.131Z,25.00
2019-03-22T02:16:04.919Z,25.90
2019-03-22T02:21:15.171Z,28.20
2019-03-22T02:26:21.243Z,25.57
2019-03-22T02:31:29.839Z,25.13
2019-03-22T02:36:34.831Z,27.73
2019-03-22T02:41:39.186Z,26.83
2019-03-22T02:46:43.492Z,26.70
2019-03-22T02:51:48.018Z,26.07
2019-03-22T02:56:53.910Z,26.60
2019-03-22T03:02:04.196Z,27.33
2019-03-22T03:07:08.620Z,26.13
2019-03-22T03:12:13.414Z,25.97
2019-03-22T03:17:17.953Z,24.23
2019-03-22T03:22:22.872Z,25.17
2019-03-22T03:27:27.535Z,24.73
2019-03-22T03:32:31.966Z,23.13
2019-03-22T03:37:36.471Z,25.10
2019-03-22T03:42:40.703Z,26.07
2019-03-22T03:47:44.922Z,26.27
2019-03-22T03:52:49.174Z,24.70
2019-03-22T03:57:53.437Z,29.93
2019-03-22T04:02:57.666Z,29.77
2019-03-22T04:08:02.344Z,32.33
2019-03-22T04:13:08.342Z,27.70
2019-03-22T04:18:12.597Z,26.10
2019-03-22T04:23:17.139Z,27.50
2019-03-22T04:28:21.648Z,27.97
2019-03-22T04:33:25.877Z,27.90
2019-03-22T04:38:30.178Z,33.00
2019-03-22T04:43:34.664Z,26.70
2019-03-22T04:48:39.535Z,27.90
2019-03-22T04:53:50.495Z,28.73
2019-03-22T04:58:55.469Z,28.67
2019-03-22T05:04:00.205Z,31.17
2019-03-22T05:09:08.677Z,33.67
2019-03-22T05:14:14.045Z,31.67
2019-03-22T05:19:20.206Z,33.20
2019-03-22T05:24:27.221Z,86.03
2019-03-22T05:29:34.435Z,36.17
2019-03-22T05:34:38.657Z,36.27
2019-03-22T05:39:43.168Z,33.73
2019-03-22T05:44:47.397Z,31.43
2019-03-22T05:49:51.720Z,31.50
2019-03-22T05:54:55.977Z,31.60
2019-03-22T06:00:00.513Z,29.03
2019-03-22T06:05:05.329Z,29.80
2019-03-22T06:10:09.924Z,25.20
2019-03-22T06:15:14.525Z,31.00
2019-03-22T06:20:18.787Z,27.60
2019-03-22T06:25:23.034Z,31.63
2019-03-22T06:30:27.610Z,30.93
2019-03-22T06:35:32.226Z,34.70
2019-03-22T06:40:36.463Z,32.80
2019-03-22T06:45:40.982Z,33.03
2019-03-22T06:50:45.204Z,31.10
2019-03-22T06:55:49.411Z,32.07
2019-03-22T07:00:53.631Z,25.10
2019-03-22T07:05:57.863Z,26.13
2019-03-22T07:11:02.065Z,29.47
2019-03-22T07:16:06.566Z,28.60
2019-03-22T07:21:10.930Z,27.87
2019-03-22T07:26:15.129Z,27.60
2019-03-22T07:31:19.394Z,25.47
2019-03-22T07:36:23.621Z,31.70
2019-03-22T07:41:28.188Z,27.07
2019-03-22T07:46:33.313Z,30.87
2019-03-22T07:51:37.619Z,34.57
2019-03-22T07:56:41.889Z,30.20
2019-03-22T08:01:46.485Z,29.33
2019-03-22T08:06:50.765Z,31.20
2019-03-22T08:11:55.008Z,24.37
2019-03-22T08:16:59.390Z,26.77
2019-03-22T08:22:03.610Z,22.50
2019-03-22T08:27:07.858Z,23.00
2019-03-22T08:32:12.309Z,24.13
2019-03-22T08:37:16.573Z,22.13
2019-03-22T08:42:21.183Z,22.02
2019-03-22T08:47:33.653Z,22.20
2019-03-22T08:52:31.429Z,22.07
2019-03-22T08:57:36.478Z,21.57
2019-03-22T09:02:40.751Z,22.37
2019-03-22T09:07:44.964Z,20.37
2019-03-22T09:12:49.225Z,19.23
2019-03-22T09:17:54.195Z,22.77
2019-03-22T09:22:58.476Z,19.10
2019-03-22T09:28:03.210Z,18.92
2019-03-22T09:33:07.513Z,18.77
2019-03-22T09:38:13.159Z,20.40
2019-03-22T09:43:18.099Z,17.12
2019-03-22T09:48:22.637Z,18.25
2019-03-22T09:53:30.283Z,17.95
2019-03-22T09:58:33.364Z,24.20
2019-03-22T10:03:37.686Z,22.10
2019-03-22T10:08:42.863Z,18.92
2019-03-22T10:13:48.453Z,20.20
2019-03-22T10:18:53.176Z,23.75
2019-03-22T10:23:57.561Z,29.45
2019-03-22T10:29:01.913Z,22.40
2019-03-22T10:34:06.500Z,23.25
2019-03-22T10:39:11.050Z,27.42
2019-03-22T10:44:15.417Z,27.75
2019-03-22T10:49:19.717Z,27.13
2019-03-22T10:54:24.125Z,30.80
2019-03-22T10:59:28.662Z,24.57
2019-03-22T11:04:32.883Z,28.47
2019-03-22T11:09:37.156Z,33.58
2019-03-22T11:14:41.454Z,29.67
2019-03-22T11:19:45.984Z,29.00
2019-03-22T11:24:50.615Z,27.82
2019-03-22T11:29:54.949Z,34.40
2019-03-22T11:34:59.525Z,32.80
2019-03-22T11:40:04.325Z,31.55
2019-03-22T11:45:10.591Z,29.25
2019-03-22T11:50:15.268Z,32.48
2019-03-22T11:55:20.484Z,30.05
2019-03-22T12:00:25.375Z,32.95
2019-03-22T12:05:29.749Z,27.37
2019-03-22T12:10:34.365Z,27.00
2019-03-22T12:15:38.657Z,29.20
2019-03-22T12:20:42.914Z,30.12
2019-03-22T12:25:47.214Z,34.33
2019-03-22T12:30:51.661Z,33.90
2019-03-22T12:35:56.301Z,35.92
2019-03-22T12:41:00.671Z,31.37
2019-03-22T12:46:05.108Z,30.05
2019-03-22T12:51:09.411Z,25.50
2019-03-22T12:56:13.665Z,20.95
2019-03-22T13:01:17.901Z,25.48
2019-03-22T13:06:22.425Z,23.22
2019-03-22T13:11:26.910Z,22.62
2019-03-22T13:16:31.397Z,26.57
2019-03-22T13:21:35.649Z,26.65
2019-03-22T13:26:40.270Z,24.67
2019-03-22T13:31:44.481Z,22.42
2019-03-22T13:36:48.709Z,20.90
2019-03-22T13:41:53.167Z,16.12
2019-03-22T13:46:57.621Z,21.82
2019-03-22T13:52:01.813Z,17.92
2019-03-22T13:57:06.210Z,17.37
2019-03-22T14:02:10.513Z,17.80
2019-03-22T14:07:14.733Z,14.87
2019-03-22T14:12:19.704Z,16.12
2019-03-22T14:17:24.252Z,16.45
2019-03-22T14:22:28.465Z,12.60
2019-03-22T14:27:32.672Z,20.30
2019-03-22T14:32:37.153Z,21.00
2019-03-22T14:37:41.369Z,14.93
2019-03-22T14:42:45.604Z,15.50
2019-03-22T14:47:50.479Z,18.15
2019-03-22T14:52:54.676Z,15.53
2019-03-22T14:57:59.091Z,14.10
2019-03-22T15:03:05.226Z,12.28
2019-03-22T15:08:10.173Z,14.68
2019-03-22T15:13:14.750Z,14.07
2019-03-22T15:18:56.534Z,14.18
2019-03-22T15:24:19.886Z,11.88
2019-03-22T15:29:37.545Z,14.40
2019-03-22T15:35:13.615Z,15.98
2019-03-22T15:40:18.029Z,11.20
2019-03-22T15:45:22.254Z,12.93
2019-03-22T15:50:27.290Z,16.37
2019-03-22T15:55:31.613Z,15.18
2019-03-22T16:00:36.205Z,19.12
2019-03-22T16:05:40.529Z,21.57
2019-03-22T16:10:44.785Z,19.90
2019-03-22T16:15:49.046Z,20.68
2019-03-22T16:20:59.886Z,28.47
2019-03-22T16:25:59.192Z,27.77
2019-03-22T16:31:03.949Z,28.80
2019-03-22T16:36:08.249Z,29.27
2019-03-22T16:41:12.481Z,27.35
2019-03-22T16:46:16.717Z,30.15
2019-03-22T16:51:21.214Z,28.65
2019-03-22T16:56:25.464Z,28.47
2019-03-22T17:01:29.952Z,30.17
2019-03-22T17:06:34.208Z,32.75
2019-03-22T17:11:38.778Z,35.33
2019-03-22T17:16:42.970Z,28.23
2019-03-22T17:21:47.180Z,30.63
2019-03-22T17:26:51.453Z,27.13
2019-03-22T17:31:55.713Z,29.40
2019-03-22T17:37:01.606Z,24.90
2019-03-22T17:42:06.224Z,23.13
2019-03-22T17:47:11.070Z,25.40
2019-03-22T17:52:15.304Z,26.17
2019-03-22T17:57:19.589Z,21.93
2019-03-22T18:02:23.952Z,26.50
2019-03-22T18:07:28.176Z,29.03
2019-03-22T18:12:32.788Z,25.47
2019-03-22T18:17:37.101Z,50.23
2019-03-22T18:22:41.351Z,30.00
2019-03-22T18:27:45.575Z,27.77
2019-03-22T18:32:50.137Z,33.60
2019-03-22T18:37:54.613Z,35.20
2019-03-22T18:42:58.814Z,30.47
2019-03-22T18:48:03.904Z,37.23
2019-03-22T18:53:08.110Z,34.60
2019-03-22T18:58:12.389Z,40.17
2019-03-22T19:03:16.734Z,39.53
2019-03-22T19:08:21.289Z,40.33
2019-03-22T19:13:30.578Z,42.03
2019-03-22T19:18:32.802Z,51.40
2019-03-22T19:23:37.249Z,53.13
2019-03-22T19:28:41.517Z,47.07
2019-03-22T19:33:45.787Z,47.80
2019-03-22T19:38:50.152Z,48.50
2019-03-22T19:43:54.485Z,45.90
2019-03-22T19:48:59.134Z,45.57
2019-03-22T19:54:03.368Z,49.20
2019-03-22T19:59:07.857Z,46.90
2019-03-22T20:04:12.147Z,54.27
2019-03-22T20:10:11.754Z,50.93
2019-03-22T20:15:16.305Z,53.83
2019-03-22T20:20:20.697Z,50.03
2019-03-22T20:25:24.950Z,47.37
2019-03-22T20:30:29.198Z,53.33
2019-03-22T20:35:33.466Z,55.57
2019-03-22T20:40:38.297Z,53.90
2019-03-22T20:45:42.547Z,51.57
2019-03-22T20:50:47.140Z,57.03
2019-03-22T20:55:51.409Z,56.13
2019-03-22T21:00:55.914Z,57.70
2019-03-22T21:06:00.153Z,55.53
2019-03-22T21:11:04.773Z,62.43
2019-03-22T21:16:09.361Z,59.13
2019-03-22T21:21:13.663Z,59.73
2019-03-22T21:26:18.622Z,58.37
2019-03-22T21:31:22.894Z,57.63
2019-03-22T21:36:27.422Z,58.27
2019-03-22T21:41:31.658Z,54.97
2019-03-22T21:46:36.053Z,60.67
2019-03-22T21:51:40.567Z,62.13
2019-03-22T21:56:44.853Z,56.90
2019-03-22T22:01:49.702Z,58.83
2019-03-22T22:06:53.977Z,55.07
2019-03-22T22:11:58.217Z,60.57
2019-03-22T22:17:02.465Z,61.13
2019-03-22T22:22:06.898Z,57.07
2019-03-22T22:27:14.084Z,54.50
2019-03-22T22:32:17.271Z,53.63
2019-03-22T22:37:21.810Z,56.77
2019-03-22T22:42:26.063Z,50.60
2019-03-22T22:47:30.278Z,55.13
2019-03-22T22:52:34.508Z,53.20
2019-03-22T22:57:39.487Z,53.23
2019-03-22T23:02:44.061Z,55.47
2019-03-22T23:07:48.298Z,53.53
2019-03-22T23:12:52.853Z,49.33
2019-03-22T23:17:57.178Z,50.50
2019-03-22T23:23:01.511Z,50.13
2019-03-22T23:28:08.235Z,52.50
2019-03-22T23:33:12.453Z,50.83
2019-03-22T23:38:16.687Z,50.17
2019-03-22T23:43:20.928Z,48.87
2019-03-22T23:48:25.174Z,49.63
2019-03-22T23:53:29.474Z,46.23
2019-03-22T23:58:34.245Z,50.63
